Time,TemperatureF,DewpointF,PressureIn,WindDirection,WindDirectionDegrees,WindSpeedMPH,WindSpeedGustMPH,Humidity,HourlyPrecipIn,Conditions,Clouds,dailyrainin,SoftwareType,DateUTC
2013-01-18 00:09:00,20.8,17.0,30.47,WSW,251,3.0,6.0,85,0.00,,,0.00,weatherlink.com 1.10,2013-01-18 06:09:00,
2013-01-18 00:24:00,21.4,18.0,30.48,WSW,253,1.0,6.0,85,0.00,,,0.00,weatherlink.com 1.10,2013-01-18 06:24:00,
2013-01-18 00:39:00,20.9,17.0,30.48,WSW,248,4.0,6.0,85,0.00,,,0.00,weatherlink.com 1.10,2013-01-18 06:39:00,
2013-01-18 00:54:00,20.9,17.0,30.48,WSW,248,3.0,6.0,85,0.00,,,0.00,weatherlink.com 1.10,2013-01-18 06:54:00,
2013-01-18 01:09:00,20.8,17.0,30.48,WSW,248,2.0,5.0,85,0.00,,,0.00,weatherlink.com 1.10,2013-01-18 07:09:00,
2013-01-18 01:24:00,21.1,17.0,30.48,WSW,248,2.0,5.0,84,0.00,,,0.00,weatherlink.com 1.10,2013-01-18 07:24:00,
2013-01-18 01:39:00,21.2,17.0,30.48,WSW,244,4.0,7.0,84,0.00,,,0.00,weatherlink.com 1.10,2013-01-18 07:39:00,
2013-01-18 01:54:00,21.2,17.0,30.48,WSW,244,2.0,5.0,84,0.00,,,0.00,weatherlink.com 1.10,2013-01-18 07:54:00,
2013-01-18 02:09:00,20.7,17.0,30.49,WSW,244,4.0,6.0,84,0.00,,,0.00,weatherlink.com 1.10,2013-01-18 08:09:00,
2013-01-18 02:24:00,20.1,16.0,30.48,WSW,244,2.0,3.0,85,0.00,,,0.00,weatherlink.com 1.10,2013-01-18 08:24:00,
2013-01-18 02:39:00,20.5,17.0,30.49,WSW,244,3.0,5.0,86,0.00,,,0.00,weatherlink.com 1.10,2013-01-18 08:39:00,
2013-01-18 02:54:00,21.4,18.0,30.49,WSW,244,5.0,5.0,87,0.00,,,0.00,weatherlink.com 1.10,2013-01-18 08:54:00,
2013-01-18 03:09:00,22.1,19.0,30.48,WSW,244,2.0,5.0,87,0.00,,,0.00,weatherlink.com 1.10,2013-01-18 09:09:00,
2013-01-18 03:24:00,22.5,19.0,30.48,WSW,244,3.0,5.0,87,0.00,,,0.00,weatherlink.com 1.10,2013-01-18 09:24:00,
2013-01-18 03:39:00,22.9,20.0,30.48,WSW,244,0.0,4.0,87,0.00,,,0.00,weatherlink.com 1.10,2013-01-18 09:39:00,
2013-01-18 03:54:00,23.1,20.0,30.47,WSW,244,2.0,3.0,87,0.00,,,0.00,weatherlink.com 1.10,2013-01-18 09:54:00,
2013-01-18 04:09:00,23.4,20.0,30.47,WSW,244,1.0,3.0,88,0.00,,,0.00,weatherlink.com 1.10,2013-01-18 10:09:00,
2013-01-18 04:24:00,23.6,20.0,30.47,WSW,244,3.0,4.0,87,0.00,,,0.00,weatherlink.com 1.10,2013-01-18 10:24:00,
2013-01-18 04:39:00,23.9,21.0,30.46,WSW,244,2.0,3.0,87,0.00,,,0.00,weatherlink.com 1.10,2013-01-18 10:39:00,
2013-01-18 04:54:00,23.9,20.0,30.47,WSW,244,2.0,4.0,86,0.00,,,0.00,weatherlink.com 1.10,2013-01-18 10:54:00,
2013-01-18 05:09:00,24.0,20.0,30.46,WSW,244,3.0,5.0,85,0.00,,,0.00,weatherlink.com 1.10,2013-01-18 11:09:00,
2013-01-18 05:24:00,23.5,20.0,30.46,SW,216,6.0,7.0,85,0.00,,,0.00,weatherlink.com 1.10,2013-01-18 11:24:00,
2013-01-18 05:39:00,23.2,19.0,30.45,South,189,4.0,7.0,85,0.00,,,0.00,weatherlink.com 1.10,2013-01-18 11:39:00,
2013-01-18 05:54:00,22.6,19.0,30.45,SSW,196,4.0,7.0,85,0.00,,,0.00,weatherlink.com 1.10,2013-01-18 11:54:00,
2013-01-18 06:09:00,22.5,19.0,30.45,SSW,194,3.0,7.0,85,0.00,,,0.00,weatherlink.com 1.10,2013-01-18 12:09:00,
2013-01-18 06:24:00,22.9,19.0,30.45,South,180,6.0,9.0,84,0.00,,,0.00,weatherlink.com 1.10,2013-01-18 12:24:00,
2013-01-18 06:39:00,22.5,18.0,30.45,South,171,3.0,8.0,84,0.00,,,0.00,weatherlink.com 1.10,2013-01-18 12:39:00,
2013-01-18 06:54:00,22.4,19.0,30.44,South,188,7.0,10.0,85,0.00,,,0.00,weatherlink.com 1.10,2013-01-18 12:54:00,
2013-01-18 07:09:00,22.2,19.0,30.44,South,186,7.0,12.0,86,0.00,,,0.00,weatherlink.com 1.10,2013-01-18 13:09:00,
2013-01-18 07:24:00,22.1,19.0,30.44,SSW,196,5.0,9.0,86,0.00,,,0.00,weatherlink.com 1.10,2013-01-18 13:24:00,
2013-01-18 07:39:00,22.6,19.0,30.44,South,189,8.0,11.0,86,0.00,,,0.00,weatherlink.com 1.10,2013-01-18 13:39:00,
2013-01-18 07:54:00,23.2,20.0,30.44,South,178,12.0,13.0,86,0.00,,,0.00,weatherlink.com 1.10,2013-01-18 13:54:00,
2013-01-18 08:09:00,24.6,20.0,30.43,SSW,196,7.0,15.0,84,0.00,,,0.00,weatherlink.com 1.10,2013-01-18 14:09:00,
2013-01-18 08:24:00,26.1,22.0,30.44,South,191,11.0,16.0,83,0.00,,,0.00,weatherlink.com 1.10,2013-01-18 14:24:00,
2013-01-18 08:39:00,26.9,22.0,30.43,South,185,13.0,17.0,83,0.00,,,0.00,weatherlink.com 1.10,2013-01-18 14:39:00,
2013-01-18 08:54:00,27.6,23.0,30.43,SSW,206,12.0,14.0,83,0.00,,,0.00,weatherlink.com 1.10,2013-01-18 14:54:00,
2013-01-18 09:09:00,28.9,24.0,30.43,SW,224,11.0,17.0,82,0.00,,,0.00,weatherlink.com 1.10,2013-01-18 15:09:00,
2013-01-18 09:24:00,30.3,24.0,30.44,SSW,196,11.0,17.0,78,0.00,,,0.00,weatherlink.com 1.10,2013-01-18 15:24:00,
2013-01-18 09:39:00,31.4,24.0,30.43,SSW,195,19.0,23.0,75,0.00,,,0.00,weatherlink.com 1.10,2013-01-18 15:39:00,
2013-01-18 09:54:00,31.8,24.0,30.43,SSW,196,10.0,23.0,73,0.00,,,0.00,weatherlink.com 1.10,2013-01-18 15:54:00,
2013-01-18 10:10:00,32.9,25.0,30.42,SW,215,18.0,24.0,72,0.00,,,0.00,weatherlink.com 1.10,2013-01-18 16:10:00,
2013-01-18 10:25:00,34.0,25.0,30.41,SSW,206,16.0,22.0,70,0.00,,,0.00,weatherlink.com 1.10,2013-01-18 16:25:00,
2013-01-18 10:40:00,34.7,25.0,30.39,SSW,212,14.0,24.0,69,0.00,,,0.00,weatherlink.com 1.10,2013-01-18 16:40:00,
2013-01-18 10:55:00,35.2,25.0,30.38,South,186,18.0,26.0,67,0.00,,,0.00,weatherlink.com 1.10,2013-01-18 16:55:00,
2013-01-18 11:10:00,35.6,26.0,30.36,SSW,194,19.0,27.0,67,0.00,,,0.00,weatherlink.com 1.10,2013-01-18 17:10:00,
2013-01-18 11:25:00,36.2,26.0,30.35,SSW,199,16.0,27.0,67,0.00,,,0.00,weatherlink.com 1.10,2013-01-18 17:25:00,
2013-01-18 11:40:00,37.0,26.0,30.34,SSW,206,19.0,30.0,64,0.00,,,0.00,weatherlink.com 1.10,2013-01-18 17:40:00,
2013-01-18 11:55:00,37.4,26.0,30.32,South,176,24.0,29.0,64,0.00,,,0.00,weatherlink.com 1.10,2013-01-18 17:55:00,
2013-01-18 12:10:00,37.7,26.0,30.31,SW,216,16.0,32.0,62,0.00,,,0.00,weatherlink.com 1.10,2013-01-18 18:10:00,
2013-01-18 12:25:00,38.2,26.0,30.29,SSW,197,20.0,30.0,63,0.00,,,0.00,weatherlink.com 1.10,2013-01-18 18:25:00,
2013-01-18 12:40:00,38.9,27.0,30.28,South,184,24.0,32.0,63,0.00,,,0.00,weatherlink.com 1.10,2013-01-18 18:40:00,
2013-01-18 12:55:00,39.1,27.0,30.26,South,188,18.0,34.0,63,0.00,,,0.00,weatherlink.com 1.10,2013-01-18 18:55:00,
2013-01-18 13:10:00,39.6,27.0,30.24,SSW,197,19.0,34.0,62,0.00,,,0.00,weatherlink.com 1.10,2013-01-18 19:10:00,
2013-01-18 13:25:00,40.2,28.0,30.23,SSW,208,16.0,33.0,63,0.00,,,0.00,weatherlink.com 1.10,2013-01-18 19:25:00,
2013-01-18 13:40:00,40.5,28.0,30.22,SSW,197,23.0,30.0,62,0.00,,,0.00,weatherlink.com 1.10,2013-01-18 19:40:00,
2013-01-18 13:55:00,41.0,28.0,30.21,SSW,192,18.0,31.0,61,0.00,,,0.00,weatherlink.com 1.10,2013-01-18 19:55:00,
2013-01-18 14:10:00,41.2,29.0,30.19,SSW,195,18.0,27.0,63,0.00,,,0.00,weatherlink.com 1.10,2013-01-18 20:10:00,
2013-01-18 14:25:00,40.8,29.0,30.18,South,172,12.0,33.0,64,0.00,,,0.00,weatherlink.com 1.10,2013-01-18 20:25:00,
2013-01-18 14:40:00,40.9,29.0,30.17,South,185,22.0,28.0,64,0.00,,,0.00,weatherlink.com 1.10,2013-01-18 20:40:00,
2013-01-18 14:55:00,41.0,30.0,30.16,SSW,204,22.0,31.0,64,0.00,,,0.00,weatherlink.com 1.10,2013-01-18 20:55:00,
2013-01-18 15:10:00,40.8,30.0,30.15,SSW,206,17.0,31.0,65,0.00,,,0.00,weatherlink.com 1.10,2013-01-18 21:10:00,
2013-01-18 15:26:00,41.1,30.0,30.14,SSE,168,19.0,34.0,66,0.00,,,0.00,weatherlink.com 1.10,2013-01-18 21:26:00,
2013-01-18 15:41:00,41.1,30.0,30.13,SSW,202,15.0,37.0,66,0.00,,,0.00,weatherlink.com 1.10,2013-01-18 21:41:00,
2013-01-18 15:56:00,41.1,31.0,30.12,SSW,205,20.0,29.0,68,0.00,,,0.00,weatherlink.com 1.10,2013-01-18 21:56:00,
2013-01-18 16:11:00,40.7,31.0,30.11,South,191,13.0,30.0,69,0.00,,,0.00,weatherlink.com 1.10,2013-01-18 22:11:00,
2013-01-18 16:26:00,40.2,31.0,30.11,SSW,195,21.0,26.0,70,0.00,,,0.00,weatherlink.com 1.10,2013-01-18 22:26:00,
2013-01-18 16:41:00,39.8,31.0,30.11,SSW,196,22.0,32.0,70,0.00,,,0.00,weatherlink.com 1.10,2013-01-18 22:41:00,
2013-01-18 16:56:00,38.7,30.0,30.10,SSE,161,11.0,29.0,72,0.00,,,0.00,weatherlink.com 1.10,2013-01-18 22:56:00,
2013-01-18 17:11:00,37.7,30.0,30.10,South,188,23.0,26.0,75,0.00,,,0.00,weatherlink.com 1.10,2013-01-18 23:11:00,
2013-01-18 17:26:00,37.3,30.0,30.10,SSW,211,20.0,27.0,76,0.00,,,0.00,weatherlink.com 1.10,2013-01-18 23:26:00,
2013-01-18 17:41:00,37.0,30.0,30.09,SSW,196,29.0,30.0,77,0.00,,,0.00,weatherlink.com 1.10,2013-01-18 23:41:00,
2013-01-18 17:56:00,36.8,30.0,30.09,SSW,195,15.0,30.0,76,0.00,,,0.00,weatherlink.com 1.10,2013-01-18 23:56:00,
2013-01-18 18:11:00,36.7,30.0,30.08,SSW,198,16.0,29.0,76,0.00,,,0.00,weatherlink.com 1.10,2013-01-19 00:11:00,
2013-01-18 18:26:00,36.8,30.0,30.07,SSW,205,25.0,35.0,76,0.00,,,0.00,weatherlink.com 1.10,2013-01-19 00:26:00,
2013-01-18 18:41:00,36.5,30.0,30.07,SSW,201,19.0,28.0,76,0.00,,,0.00,weatherlink.com 1.10,2013-01-19 00:41:00,
2013-01-18 18:56:00,36.6,30.0,30.07,South,182,22.0,30.0,76,0.00,,,0.00,weatherlink.com 1.10,2013-01-19 00:56:00,
2013-01-18 19:11:00,36.4,30.0,30.07,SSW,212,19.0,30.0,76,0.00,,,0.00,weatherlink.com 1.10,2013-01-19 01:11:00,
2013-01-18 19:26:00,36.5,30.0,30.07,SSW,194,23.0,30.0,76,0.00,,,0.00,weatherlink.com 1.10,2013-01-19 01:26:00,
2013-01-18 19:41:00,36.7,30.0,30.07,SSW,207,12.0,30.0,76,0.00,,,0.00,weatherlink.com 1.10,2013-01-19 01:41:00,
2013-01-18 19:56:00,36.9,30.0,30.07,SSW,200,17.0,24.0,75,0.00,,,0.00,weatherlink.com 1.10,2013-01-19 01:56:00,
2013-01-18 20:11:00,37.4,30.0,30.07,South,180,14.0,23.0,74,0.00,,,0.00,weatherlink.com 1.10,2013-01-19 02:11:00,
2013-01-18 20:26:00,37.7,30.0,30.07,SSW,207,18.0,24.0,73,0.00,,,0.00,weatherlink.com 1.10,2013-01-19 02:26:00,
2013-01-18 20:41:00,38.4,30.0,30.07,South,188,18.0,25.0,71,0.00,,,0.00,weatherlink.com 1.10,2013-01-19 02:41:00,
2013-01-18 20:56:00,39.5,30.0,30.06,SSW,201,24.0,29.0,68,0.00,,,0.00,weatherlink.com 1.10,2013-01-19 02:56:00,
2013-01-18 21:11:00,39.3,29.0,30.06,SSW,202,20.0,33.0,68,0.00,,,0.00,weatherlink.com 1.10,2013-01-19 03:11:00,
2013-01-18 21:26:00,38.8,30.0,30.06,SW,219,20.0,33.0,70,0.00,,,0.00,weatherlink.com 1.10,2013-01-19 03:26:00,
2013-01-18 21:41:00,37.9,30.0,30.06,SSW,213,21.0,34.0,73,0.00,,,0.00,weatherlink.com 1.10,2013-01-19 03:41:00,
2013-01-18 21:56:00,37.4,30.0,30.06,SW,223,18.0,29.0,75,0.00,,,0.00,weatherlink.com 1.10,2013-01-19 03:56:00,
2013-01-18 22:11:00,37.1,30.0,30.06,SSW,207,17.0,28.0,76,0.00,,,0.00,weatherlink.com 1.10,2013-01-19 04:11:00,
2013-01-18 22:26:00,36.9,30.0,30.06,SSW,209,15.0,29.0,77,0.00,,,0.00,weatherlink.com 1.10,2013-01-19 04:26:00,
2013-01-18 22:41:00,36.6,30.0,30.06,SSW,204,21.0,31.0,78,0.00,,,0.00,weatherlink.com 1.10,2013-01-19 04:41:00,
2013-01-18 22:56:00,36.5,30.0,30.06,SSW,211,26.0,27.0,78,0.00,,,0.00,weatherlink.com 1.10,2013-01-19 04:56:00,
2013-01-18 23:11:00,36.4,30.0,30.06,SW,223,18.0,30.0,79,0.00,,,0.00,weatherlink.com 1.10,2013-01-19 05:11:00,
2013-01-18 23:27:00,36.1,30.0,30.06,SSW,209,25.0,28.0,79,0.00,,,0.00,weatherlink.com 1.10,2013-01-19 05:27:00,
2013-01-18 23:42:00,36.1,31.0,30.05,SSW,203,20.0,27.0,80,0.00,,,0.00,weatherlink.com 1.10,2013-01-19 05:42:00,
2013-01-18 23:57:00,36.2,30.0,30.05,SSW,205,19.0,29.0,79,0.00,,,0.00,weatherlink.com 1.10,2013-01-19 05:57:00,